createdAt,value
2022-09-06T00:00:26.839Z,61.97
2022-09-06T00:01:02.219Z,61.96
2022-09-06T00:01:35.558Z,61.80
2022-09-06T00:02:09.062Z,61.75
2022-09-06T00:02:43.617Z,61.66
2022-09-06T00:03:17.067Z,61.90
2022-09-06T00:03:51.261Z,62.02
2022-09-06T00:04:24.569Z,62.12
2022-09-06T00:04:57.926Z,62.15
2022-09-06T00:05:32.429Z,62.19
2022-09-06T00:06:14.259Z,62.29
2022-09-06T00:06:47.633Z,62.44
2022-09-06T00:07:20.755Z,62.62
2022-09-06T00:07:54.252Z,62.98
2022-09-06T00:08:27.632Z,63.09
2022-09-06T00:09:01.160Z,62.46
2022-09-06T00:09:34.333Z,61.40
2022-09-06T00:10:08.040Z,60.16
2022-09-06T00:10:43.155Z,58.82
2022-09-06T00:11:18.328Z,57.07
2022-09-06T00:11:51.461Z,55.92
2022-09-06T00:12:25.820Z,55.23
2022-09-06T00:13:07.618Z,55.24
2022-09-06T00:13:41.439Z,55.38
2022-09-06T00:14:14.608Z,55.74
2022-09-06T00:14:47.827Z,56.07
2022-09-06T00:15:22.678Z,56.60
2022-09-06T00:15:56.125Z,57.00
2022-09-06T00:16:30.571Z,57.37
2022-09-06T00:17:04.106Z,57.71
2022-09-06T00:17:37.769Z,57.97
2022-09-06T00:18:10.963Z,58.33
2022-09-06T00:18:45.249Z,58.72
2022-09-06T00:19:18.568Z,58.94
2022-09-06T00:19:52.089Z,59.27
2022-09-06T00:20:27.632Z,59.52
2022-09-06T00:21:01.192Z,59.78
2022-09-06T00:21:35.874Z,60.02
2022-09-06T00:22:09.029Z,60.16
2022-09-06T00:22:42.263Z,60.32
2022-09-06T00:23:15.422Z,60.51
2022-09-06T00:23:48.661Z,60.71
2022-09-06T00:24:21.781Z,60.89
2022-09-06T00:24:54.852Z,61.10
2022-09-06T00:25:29.597Z,61.30
2022-09-06T00:26:05.075Z,61.37
2022-09-06T00:26:38.187Z,61.52
2022-09-06T00:27:11.370Z,61.74
2022-09-06T00:27:44.525Z,61.80
2022-09-06T00:28:17.802Z,61.97
2022-09-06T00:28:50.936Z,62.09
2022-09-06T00:29:24.069Z,62.19
2022-09-06T00:29:57.267Z,62.24
2022-09-06T00:30:31.575Z,62.29
2022-09-06T00:31:17.478Z,62.14
2022-09-06T00:31:50.704Z,62.16
2022-09-06T00:32:23.950Z,62.37
2022-09-06T00:32:57.930Z,62.36
2022-09-06T00:33:31.017Z,62.46
2022-09-06T00:34:04.233Z,62.62
2022-09-06T00:34:37.396Z,62.94
2022-09-06T00:35:10.619Z,62.63
2022-09-06T00:35:47.502Z,61.83
2022-09-06T00:36:22.021Z,60.93
2022-09-06T00:36:55.115Z,59.00
2022-09-06T00:37:28.439Z,57.07
2022-09-06T00:38:02.277Z,55.76
2022-09-06T00:38:36.053Z,55.16
2022-09-06T00:39:09.204Z,54.93
2022-09-06T00:39:42.389Z,54.90
2022-09-06T00:40:16.598Z,55.16
2022-09-06T00:40:49.758Z,55.48
2022-09-06T00:41:23.012Z,55.91
2022-09-06T00:41:56.132Z,56.22
2022-09-06T00:42:29.194Z,56.49
2022-09-06T00:43:02.359Z,56.93
2022-09-06T00:43:35.937Z,57.45
2022-09-06T00:44:09.291Z,57.90
2022-09-06T00:44:42.437Z,58.22
2022-09-06T00:45:15.937Z,58.55
2022-09-06T00:45:49.496Z,58.91
2022-09-06T00:46:27.717Z,59.15
2022-09-06T00:47:01.891Z,59.40
2022-09-06T00:47:36.903Z,59.55
2022-09-06T00:48:10.123Z,59.31
2022-09-06T00:48:45.814Z,59.54
2022-09-06T00:49:29.047Z,59.71
2022-09-06T00:50:03.495Z,59.85
2022-09-06T00:50:36.826Z,60.05
2022-09-06T00:51:12.201Z,60.30
2022-09-06T00:51:45.285Z,60.58
2022-09-06T00:52:20.136Z,60.94
2022-09-06T00:52:53.755Z,61.11
2022-09-06T00:53:27.668Z,61.23
2022-09-06T00:54:04.590Z,61.34
2022-09-06T00:54:38.273Z,61.42
2022-09-06T00:55:11.744Z,61.56
2022-09-06T00:55:45.547Z,61.73
2022-09-06T00:56:18.988Z,61.83
2022-09-06T00:56:52.276Z,61.94
2022-09-06T00:57:27.465Z,62.16
2022-09-06T00:58:00.841Z,62.25
2022-09-06T00:58:35.355Z,62.40
2022-09-06T00:59:08.705Z,62.54
2022-09-06T00:59:42.951Z,62.88
2022-09-06T01:00:16.377Z,63.12
2022-09-06T01:00:49.485Z,62.46
2022-09-06T01:01:22.671Z,61.31
2022-09-06T01:01:55.974Z,59.94
2022-09-06T01:02:29.492Z,58.21
2022-09-06T01:03:03.859Z,56.32
2022-09-06T01:03:38.103Z,55.19
2022-09-06T01:04:11.823Z,54.61
2022-09-06T01:04:47.962Z,54.64
2022-09-06T01:05:26.060Z,54.78
2022-09-06T01:06:16.382Z,55.02
2022-09-06T01:07:15.596Z,55.34
2022-09-06T01:08:14.308Z,55.90
2022-09-06T01:09:12.871Z,56.57
2022-09-06T01:09:52.695Z,57.14
2022-09-06T01:10:31.707Z,57.17
2022-09-06T01:11:22.987Z,57.56
2022-09-06T01:12:14.103Z,57.75
2022-09-06T01:12:59.437Z,57.71
2022-09-06T01:14:12.108Z,57.65
2022-09-06T01:14:48.180Z,58.44
2022-09-06T01:15:35.497Z,59.49
2022-09-06T01:16:17.232Z,59.71
2022-09-06T01:16:59.449Z,60.07
2022-09-06T01:18:27.152Z,60.20
2022-09-06T01:19:07.293Z,59.88
2022-09-06T01:20:20.544Z,60.53
2022-09-06T01:21:09.103Z,60.11
2022-09-06T01:21:55.128Z,60.75
2022-09-06T01:22:58.680Z,60.78
2022-09-06T01:24:05.577Z,60.82
2022-09-06T01:25:23.741Z,60.81
2022-09-06T01:26:02.997Z,60.86
2022-09-06T01:27:07.212Z,61.50
2022-09-06T01:27:59.027Z,61.60
2022-09-06T01:28:43.525Z,61.94
2022-09-06T01:29:42.440Z,62.22
2022-09-06T01:30:19.159Z,62.23
2022-09-06T01:31:00.798Z,62.58
2022-09-06T01:31:42.556Z,63.26
2022-09-06T01:32:20.225Z,63.35
2022-09-06T01:33:14.640Z,62.12
2022-09-06T01:34:05.919Z,62.45
2022-09-06T01:34:45.926Z,60.04
2022-09-06T01:35:24.401Z,56.31
2022-09-06T01:36:05.303Z,54.97
2022-09-06T01:37:09.489Z,54.59
2022-09-06T01:37:43.898Z,54.75
2022-09-06T01:38:17.923Z,55.00
2022-09-06T01:38:51.391Z,55.16
2022-09-06T01:39:29.700Z,55.57
2022-09-06T01:40:03.110Z,55.90
2022-09-06T01:40:36.814Z,56.45
2022-09-06T01:41:10.878Z,56.85
2022-09-06T01:41:44.082Z,57.26
2022-09-06T01:42:32.343Z,57.76
2022-09-06T01:43:11.187Z,58.22
2022-09-06T01:43:48.878Z,58.49
2022-09-06T01:44:23.474Z,58.51
2022-09-06T01:45:01.712Z,58.71
2022-09-06T01:46:11.048Z,58.85
2022-09-06T01:46:56.448Z,58.82
2022-09-06T01:47:42.495Z,59.65
2022-09-06T01:48:34.574Z,60.17
2022-09-06T01:49:27.025Z,60.49
2022-09-06T01:50:10.038Z,60.77
2022-09-06T01:51:09.363Z,61.02
2022-09-06T01:51:53.278Z,60.87
2022-09-06T01:52:51.924Z,60.97
2022-09-06T01:53:51.809Z,61.03
2022-09-06T01:54:48.642Z,61.15
2022-09-06T01:55:35.053Z,61.26
2022-09-06T01:56:22.189Z,61.53
2022-09-06T01:57:32.271Z,61.61
2022-09-06T01:58:31.312Z,61.51
2022-09-06T01:59:29.671Z,61.62
2022-09-06T02:00:10.640Z,61.95
2022-09-06T02:01:26.818Z,62.24
2022-09-06T02:02:09.666Z,61.78
2022-09-06T02:02:48.635Z,62.31
2022-09-06T02:03:47.821Z,62.60
2022-09-06T02:04:28.351Z,65.08
2022-09-06T02:05:10.969Z,63.81
2022-09-06T02:05:51.930Z,63.02
2022-09-06T02:06:30.544Z,61.20
2022-09-06T02:07:13.844Z,59.03
2022-09-06T02:07:50.661Z,56.75
2022-09-06T02:08:33.822Z,55.18
2022-09-06T02:09:16.448Z,55.09
2022-09-06T02:10:06.929Z,55.00
2022-09-06T02:11:07.841Z,55.33
2022-09-06T02:11:48.898Z,55.85
2022-09-06T02:12:25.019Z,56.60
2022-09-06T02:13:01.720Z,57.12
2022-09-06T02:13:43.180Z,57.64
2022-09-06T02:14:24.053Z,58.13
2022-09-06T02:15:10.654Z,58.55
2022-09-06T02:15:50.991Z,58.92
2022-09-06T02:16:27.882Z,59.24
2022-09-06T02:17:03.224Z,59.63
2022-09-06T02:17:43.167Z,59.89
2022-09-06T02:18:32.132Z,60.04
2022-09-06T02:19:15.435Z,60.21
2022-09-06T02:20:02.964Z,60.51
2022-09-06T02:20:43.094Z,60.49
2022-09-06T02:21:18.570Z,60.82
2022-09-06T02:21:54.755Z,60.74
2022-09-06T02:22:31.942Z,60.70
2022-09-06T02:23:08.722Z,60.69
2022-09-06T02:23:43.709Z,60.78
2022-09-06T02:24:23.360Z,60.91
2022-09-06T02:24:59.221Z,61.07
2022-09-06T02:25:38.400Z,61.31
2022-09-06T02:26:19.365Z,61.51
2022-09-06T02:26:52.623Z,61.65
2022-09-06T02:27:26.317Z,61.82
2022-09-06T02:27:59.718Z,61.99
2022-09-06T02:28:33.387Z,62.21
2022-09-06T02:29:06.833Z,62.17
2022-09-06T02:29:40.348Z,62.33
2022-09-06T02:30:13.734Z,62.54
2022-09-06T02:30:51.384Z,62.86
2022-09-06T02:31:30.218Z,63.21
2022-09-06T02:32:22.869Z,63.02
2022-09-06T02:33:05.045Z,63.59
2022-09-06T02:33:38.415Z,60.49
2022-09-06T02:34:15.940Z,57.47
2022-09-06T02:34:54.924Z,55.65
2022-09-06T02:35:28.408Z,54.60
2022-09-06T02:36:07.425Z,54.11
2022-09-06T02:36:40.562Z,53.68
2022-09-06T02:37:15.907Z,53.87
2022-09-06T02:37:50.520Z,54.21
2022-09-06T02:38:25.531Z,54.44
2022-09-06T02:39:02.155Z,54.80
2022-09-06T02:39:35.394Z,55.34
2022-09-06T02:40:10.525Z,55.84
2022-09-06T02:40:45.120Z,56.73
2022-09-06T02:41:23.333Z,57.00
2022-09-06T02:41:56.481Z,57.28
2022-09-06T02:42:29.600Z,57.79
2022-09-06T02:43:02.778Z,58.00
2022-09-06T02:43:36.269Z,58.22
2022-09-06T02:44:09.453Z,58.55
2022-09-06T02:44:42.678Z,58.71
2022-09-06T02:45:15.894Z,58.91
2022-09-06T02:45:49.060Z,59.23
2022-09-06T02:46:23.935Z,59.20
2022-09-06T02:46:57.445Z,59.03
2022-09-06T02:47:30.720Z,59.10
2022-09-06T02:48:04.411Z,59.28
2022-09-06T02:48:37.578Z,59.54
2022-09-06T02:49:10.667Z,59.84
2022-09-06T02:49:43.628Z,59.90
2022-09-06T02:50:16.745Z,60.00
2022-09-06T02:50:50.377Z,60.31
2022-09-06T02:51:24.052Z,60.68
2022-09-06T02:51:57.442Z,61.04
2022-09-06T02:52:30.558Z,61.25
2022-09-06T02:53:05.066Z,61.38
2022-09-06T02:53:38.590Z,61.54
2022-09-06T02:54:11.891Z,61.80
2022-09-06T02:54:45.573Z,61.85
2022-09-06T02:55:18.673Z,62.06
2022-09-06T02:55:51.889Z,62.12
2022-09-06T02:56:25.158Z,62.23
2022-09-06T02:56:58.467Z,62.31
2022-09-06T02:57:31.536Z,62.39
2022-09-06T02:58:06.904Z,62.39
2022-09-06T02:58:40.477Z,62.38
2022-09-06T02:59:13.534Z,62.58
2022-09-06T02:59:46.637Z,62.47
2022-09-06T03:00:19.864Z,61.51
2022-09-06T03:00:53.827Z,60.72
2022-09-06T03:01:27.536Z,59.40
2022-09-06T03:02:00.882Z,57.58
2022-09-06T03:02:34.239Z,56.18
2022-09-06T03:03:08.195Z,55.53
2022-09-06T03:03:41.508Z,55.39
2022-09-06T03:04:14.765Z,55.55
2022-09-06T03:04:47.780Z,55.86
2022-09-06T03:05:21.010Z,56.23
2022-09-06T03:05:55.210Z,56.75
2022-09-06T03:06:28.719Z,57.07
2022-09-06T03:07:01.934Z,57.40
2022-09-06T03:07:35.046Z,57.70
2022-09-06T03:08:08.172Z,57.95
2022-09-06T03:08:41.317Z,58.22
2022-09-06T03:09:14.322Z,58.56
2022-09-06T03:09:47.368Z,58.60
2022-09-06T03:10:21.833Z,58.78
2022-09-06T03:10:57.218Z,58.95
2022-09-06T03:11:30.301Z,59.11
2022-09-06T03:12:03.662Z,59.29
2022-09-06T03:12:36.804Z,59.51
2022-09-06T03:13:09.941Z,59.66
2022-09-06T03:13:43.181Z,59.88
2022-09-06T03:14:17.440Z,60.17
2022-09-06T03:14:54.676Z,60.47
2022-09-06T03:15:28.272Z,60.67
2022-09-06T03:16:01.803Z,60.99
2022-09-06T03:16:35.398Z,61.11
2022-09-06T03:17:08.720Z,61.33
2022-09-06T03:17:42.985Z,61.57
2022-09-06T03:18:16.246Z,61.96
2022-09-06T03:18:49.613Z,62.11
2022-09-06T03:19:22.743Z,62.16
2022-09-06T03:19:55.951Z,62.20
2022-09-06T03:20:30.285Z,62.41
2022-09-06T03:21:05.331Z,62.59
2022-09-06T03:21:38.638Z,63.08
2022-09-06T03:22:11.748Z,62.87
2022-09-06T03:22:44.987Z,61.78
2022-09-06T03:23:22.407Z,60.73
2022-09-06T03:23:55.624Z,59.51
2022-09-06T03:24:28.847Z,57.38
2022-09-06T03:25:02.176Z,56.14
2022-09-06T03:25:36.272Z,55.53
2022-09-06T03:26:09.424Z,55.16
2022-09-06T03:26:42.720Z,55.12
2022-09-06T03:27:16.675Z,55.49
2022-09-06T03:27:50.039Z,55.71
2022-09-06T03:28:24.070Z,56.18
2022-09-06T03:28:57.294Z,56.53
2022-09-06T03:29:30.495Z,56.95
2022-09-06T03:30:05.358Z,57.28
2022-09-06T03:30:39.910Z,57.87
2022-09-06T03:31:13.530Z,58.34
2022-09-06T03:31:46.670Z,58.69
2022-09-06T03:32:19.830Z,59.01
2022-09-06T03:32:53.038Z,59.30
2022-09-06T03:33:26.324Z,59.67
2022-09-06T03:33:59.332Z,60.02
2022-09-06T03:34:32.427Z,60.35
2022-09-06T03:35:05.884Z,60.34
2022-09-06T03:35:39.247Z,60.43
2022-09-06T03:36:12.382Z,60.61
2022-09-06T03:36:45.544Z,60.84
2022-09-06T03:37:19.723Z,61.02
2022-09-06T03:37:52.768Z,61.12
2022-09-06T03:38:28.028Z,61.36
2022-09-06T03:39:01.364Z,61.26
2022-09-06T03:39:34.641Z,61.41
2022-09-06T03:40:08.884Z,61.51
2022-09-06T03:40:45.024Z,61.84
2022-09-06T03:41:18.096Z,61.89
2022-09-06T03:41:51.254Z,62.03
2022-09-06T03:42:26.889Z,62.09
2022-09-06T03:43:00.150Z,61.96
2022-09-06T03:43:34.201Z,61.96
2022-09-06T03:44:07.370Z,61.93
2022-09-06T03:44:40.541Z,61.73
2022-09-06T03:45:13.800Z,61.70
2022-09-06T03:45:50.046Z,62.03
2022-09-06T03:46:23.271Z,62.16
2022-09-06T03:46:56.538Z,62.30
2022-09-06T03:47:29.679Z,62.39
2022-09-06T03:48:03.302Z,62.61
2022-09-06T03:48:36.669Z,62.99
2022-09-06T03:49:10.706Z,63.18
2022-09-06T03:49:43.810Z,62.69
2022-09-06T03:50:17.039Z,61.47
2022-09-06T03:50:52.743Z,60.17
2022-09-06T03:51:26.455Z,58.60
2022-09-06T03:51:59.536Z,56.58
2022-09-06T03:52:33.293Z,55.59
2022-09-06T03:53:06.369Z,54.99
2022-09-06T03:53:39.549Z,54.90
2022-09-06T03:54:12.761Z,55.04
2022-09-06T03:54:46.209Z,55.41
2022-09-06T03:55:19.341Z,55.82
2022-09-06T03:55:54.809Z,56.23
2022-09-06T03:56:28.582Z,56.72
2022-09-06T03:57:01.597Z,57.10
2022-09-06T03:57:34.860Z,57.61
2022-09-06T03:58:08.005Z,57.96
2022-09-06T03:58:41.214Z,58.24
2022-09-06T03:59:14.351Z,58.61
2022-09-06T03:59:47.493Z,59.00
2022-09-06T04:00:20.909Z,59.34
2022-09-06T04:01:10.076Z,59.55
2022-09-06T04:01:43.475Z,59.67
2022-09-06T04:02:16.812Z,60.19
2022-09-06T04:02:50.022Z,60.43
2022-09-06T04:03:23.200Z,60.53
2022-09-06T04:03:56.440Z,60.67
2022-09-06T04:04:29.528Z,60.80
2022-09-06T04:05:02.695Z,60.94
2022-09-06T04:05:35.890Z,61.14
2022-09-06T04:06:09.791Z,61.37
2022-09-06T04:06:42.970Z,61.45
2022-09-06T04:07:16.123Z,61.69
2022-09-06T04:07:49.291Z,61.81
2022-09-06T04:08:22.397Z,61.96
2022-09-06T04:08:55.500Z,62.12
2022-09-06T04:09:28.887Z,62.30
2022-09-06T04:10:01.962Z,62.46
2022-09-06T04:10:35.157Z,62.64
2022-09-06T04:11:08.448Z,63.11
2022-09-06T04:11:44.946Z,63.15
2022-09-06T04:12:18.393Z,62.66
2022-09-06T04:12:51.499Z,60.99
2022-09-06T04:13:25.981Z,59.32
2022-09-06T04:13:59.226Z,58.00
2022-09-06T04:14:32.470Z,56.41
2022-09-06T04:15:06.408Z,55.66
2022-09-06T04:15:39.574Z,55.53
2022-09-06T04:16:13.197Z,55.81
2022-09-06T04:16:46.337Z,56.19
2022-09-06T04:17:19.510Z,56.62
2022-09-06T04:17:52.732Z,56.99
2022-09-06T04:18:26.289Z,57.46
2022-09-06T04:19:01.140Z,57.80
2022-09-06T04:19:34.604Z,58.24
2022-09-06T04:20:08.104Z,58.70
2022-09-06T04:20:41.259Z,58.86
2022-09-06T04:21:14.413Z,58.98
2022-09-06T04:21:47.505Z,59.31
2022-09-06T04:22:20.820Z,59.48
2022-09-06T04:22:54.044Z,59.73
2022-09-06T04:23:28.916Z,59.92
2022-09-06T04:24:02.289Z,60.19
2022-09-06T04:24:35.329Z,60.51
2022-09-06T04:25:09.419Z,60.75
2022-09-06T04:25:46.784Z,60.96
2022-09-06T04:26:20.332Z,61.09
2022-09-06T04:26:53.566Z,61.27
2022-09-06T04:27:26.790Z,61.55
2022-09-06T04:27:59.996Z,61.85
2022-09-06T04:28:33.153Z,61.91
2022-09-06T04:29:06.372Z,62.09
2022-09-06T04:29:39.684Z,62.27
2022-09-06T04:30:13.005Z,62.27
2022-09-06T04:30:52.465Z,62.40
2022-09-06T04:31:26.940Z,62.50
2022-09-06T04:32:00.492Z,63.12
2022-09-06T04:32:33.609Z,63.02
2022-09-06T04:33:06.723Z,62.40
2022-09-06T04:33:40.415Z,61.33
2022-09-06T04:34:13.503Z,60.19
2022-09-06T04:34:46.731Z,58.55
2022-09-06T04:35:19.874Z,56.81
2022-09-06T04:35:58.286Z,55.63
2022-09-06T04:36:31.453Z,55.20
2022-09-06T04:37:04.807Z,54.94
2022-09-06T04:37:37.935Z,54.97
2022-09-06T04:38:11.041Z,55.25
2022-09-06T04:38:45.318Z,55.62
2022-09-06T04:39:18.654Z,55.99
2022-09-06T04:39:51.902Z,56.50
2022-09-06T04:40:25.269Z,57.05
2022-09-06T04:40:58.409Z,57.36
2022-09-06T04:41:31.555Z,57.71
2022-09-06T04:42:05.172Z,58.17
2022-09-06T04:42:38.442Z,58.61
2022-09-06T04:43:11.625Z,58.96
2022-09-06T04:43:45.161Z,59.36
2022-09-06T04:44:18.286Z,59.65
2022-09-06T04:44:51.518Z,59.97
2022-09-06T04:45:25.144Z,60.32
2022-09-06T04:46:27.592Z,60.62
2022-09-06T04:47:14.912Z,60.33
2022-09-06T04:47:48.456Z,60.72
2022-09-06T04:48:23.378Z,61.15
2022-09-06T04:48:58.241Z,61.41
2022-09-06T04:49:31.453Z,61.61
2022-09-06T04:50:05.127Z,61.64
2022-09-06T04:50:38.679Z,61.74
2022-09-06T04:51:11.866Z,61.89
2022-09-06T04:51:44.928Z,62.09
2022-09-06T04:52:18.081Z,62.26
2022-09-06T04:52:51.382Z,62.38
2022-09-06T04:53:24.534Z,62.71
2022-09-06T04:53:57.744Z,63.11
2022-09-06T04:54:30.914Z,63.13
2022-09-06T04:55:04.573Z,62.56
2022-09-06T04:55:37.922Z,61.51
2022-09-06T04:56:17.175Z,60.30
2022-09-06T04:56:50.268Z,59.42
2022-09-06T04:57:23.463Z,56.89
2022-09-06T04:57:58.719Z,55.64
2022-09-06T04:58:31.931Z,55.09
2022-09-06T04:59:05.160Z,55.01
2022-09-06T04:59:38.361Z,55.25
2022-09-06T05:00:12.125Z,55.56
2022-09-06T05:00:45.488Z,56.00
2022-09-06T05:01:19.008Z,56.46
2022-09-06T05:01:52.299Z,56.94
2022-09-06T05:02:25.856Z,57.32
2022-09-06T05:02:59.268Z,57.71
2022-09-06T05:03:32.497Z,57.94
2022-09-06T05:04:05.713Z,58.34
2022-09-06T05:04:39.000Z,58.61
2022-09-06T05:05:12.208Z,58.90
2022-09-06T05:05:45.498Z,59.12
2022-09-06T05:06:25.555Z,59.34
2022-09-06T05:07:02.552Z,59.56
2022-09-06T05:07:35.647Z,60.00
2022-09-06T05:08:08.904Z,60.24
2022-09-06T05:08:42.176Z,60.62
2022-09-06T05:09:15.503Z,60.78
2022-09-06T05:09:48.735Z,61.05
2022-09-06T05:10:23.777Z,61.27
2022-09-06T05:10:56.775Z,61.36
2022-09-06T05:11:29.895Z,61.51
2022-09-06T05:12:03.642Z,61.59
2022-09-06T05:12:40.869Z,61.78
2022-09-06T05:13:16.653Z,62.01
2022-09-06T05:13:50.581Z,62.27
2022-09-06T05:14:23.873Z,62.47
2022-09-06T05:14:57.051Z,62.86
2022-09-06T05:15:30.226Z,63.55
2022-09-06T05:16:05.786Z,63.44
2022-09-06T05:16:39.103Z,63.20
2022-09-06T05:17:14.954Z,61.92
2022-09-06T05:17:48.180Z,61.11
2022-09-06T05:18:21.343Z,59.29
2022-09-06T05:18:54.684Z,57.54
2022-09-06T05:19:28.098Z,56.38
2022-09-06T05:20:01.327Z,56.08
2022-09-06T05:20:34.683Z,56.03
2022-09-06T05:21:08.017Z,56.08
2022-09-06T05:21:41.367Z,56.38
2022-09-06T05:22:14.607Z,56.78
2022-09-06T05:22:56.804Z,57.16
2022-09-06T05:23:29.935Z,57.62
2022-09-06T05:24:03.229Z,58.24
2022-09-06T05:24:36.503Z,58.55
2022-09-06T05:25:10.752Z,58.82
2022-09-06T05:25:43.874Z,59.23
2022-09-06T05:26:17.036Z,59.74
2022-09-06T05:26:50.219Z,60.33
2022-09-06T05:27:23.717Z,60.84
2022-09-06T05:27:56.922Z,61.23
2022-09-06T05:28:30.013Z,61.59
2022-09-06T05:29:03.591Z,62.08
2022-09-06T05:29:36.646Z,62.46
2022-09-06T05:30:10.651Z,62.91
2022-09-06T05:30:44.237Z,63.40
2022-09-06T05:31:32.243Z,63.13
2022-09-06T05:32:05.692Z,63.50
2022-09-06T05:32:38.885Z,60.62
2022-09-06T05:33:14.698Z,59.10
2022-09-06T05:33:48.035Z,57.50
2022-09-06T05:34:21.347Z,56.42
2022-09-06T05:34:54.639Z,56.13
2022-09-06T05:35:28.113Z,56.04
2022-09-06T05:36:01.429Z,56.19
2022-09-06T05:36:34.723Z,56.79
2022-09-06T05:37:07.970Z,57.33
2022-09-06T05:37:41.296Z,58.05
2022-09-06T05:38:14.602Z,58.73
2022-09-06T05:38:47.906Z,59.40
2022-09-06T05:39:22.340Z,60.03
2022-09-06T05:39:55.695Z,60.57
2022-09-06T05:40:29.033Z,61.16
2022-09-06T05:41:02.131Z,61.64
2022-09-06T05:41:35.365Z,62.20
2022-09-06T05:42:08.763Z,62.71
2022-09-06T05:42:42.114Z,63.28
2022-09-06T05:43:15.275Z,63.76
2022-09-06T05:43:49.485Z,63.13
2022-09-06T05:44:23.718Z,62.66
2022-09-06T05:44:56.819Z,61.46
2022-09-06T05:45:29.963Z,60.38
2022-09-06T05:46:03.946Z,58.94
2022-09-06T05:46:43.664Z,57.70
2022-09-06T05:47:16.883Z,56.89
2022-09-06T05:47:50.047Z,56.41
2022-09-06T05:48:23.341Z,56.54
2022-09-06T05:49:01.415Z,56.83
2022-09-06T05:49:34.869Z,57.27
2022-09-06T05:50:08.469Z,57.74
2022-09-06T05:50:41.579Z,58.25
2022-09-06T05:51:14.762Z,58.70
2022-09-06T05:51:51.822Z,59.10
2022-09-06T05:52:24.989Z,59.40
2022-09-06T05:52:58.256Z,59.94
2022-09-06T05:53:40.131Z,60.44
2022-09-06T05:54:13.654Z,60.73
2022-09-06T05:54:46.833Z,61.16
2022-09-06T05:55:20.039Z,61.38
2022-09-06T05:55:53.188Z,61.56
2022-09-06T05:56:26.415Z,61.55
2022-09-06T05:56:59.545Z,61.81
2022-09-06T05:57:33.133Z,61.93
2022-09-06T05:58:06.332Z,62.10
2022-09-06T05:58:39.703Z,62.35
2022-09-06T05:59:12.865Z,62.47
2022-09-06T05:59:45.997Z,63.11
2022-09-06T06:00:19.399Z,63.15
2022-09-06T06:00:52.658Z,62.65
2022-09-06T06:01:34.653Z,61.60
2022-09-06T06:02:08.237Z,60.77
2022-09-06T06:02:41.586Z,58.65
2022-09-06T06:03:14.726Z,56.90
2022-09-06T06:03:54.205Z,56.01
2022-09-06T06:04:27.268Z,55.43
2022-09-06T06:05:00.659Z,55.30
2022-09-06T06:05:33.864Z,55.57
2022-09-06T06:06:07.202Z,56.16
2022-09-06T06:06:41.344Z,56.72
2022-09-06T06:07:15.741Z,56.97
2022-09-06T06:07:49.610Z,57.32
2022-09-06T06:08:23.031Z,57.90
2022-09-06T06:08:56.754Z,58.53
2022-09-06T06:09:29.941Z,58.95
2022-09-06T06:10:03.289Z,59.29
2022-09-06T06:10:39.977Z,59.67
2022-09-06T06:11:14.226Z,60.25
2022-09-06T06:11:47.886Z,60.91
2022-09-06T06:12:20.863Z,61.38
2022-09-06T06:12:53.881Z,61.78
2022-09-06T06:13:31.917Z,62.24
2022-09-06T06:14:05.651Z,62.51
2022-09-06T06:14:38.851Z,63.39
2022-09-06T06:15:11.881Z,63.47
2022-09-06T06:15:45.058Z,62.88
2022-09-06T06:16:20.649Z,61.61
2022-09-06T06:16:54.116Z,60.66
2022-09-06T06:17:28.850Z,59.20
2022-09-06T06:18:02.021Z,57.74
2022-09-06T06:18:35.550Z,56.85
2022-09-06T06:19:08.812Z,56.21
2022-09-06T06:19:41.952Z,56.13
2022-09-06T06:20:15.195Z,56.20
2022-09-06T06:20:48.366Z,56.40
2022-09-06T06:21:26.545Z,56.81
2022-09-06T06:21:59.862Z,57.37
2022-09-06T06:22:32.926Z,57.88
2022-09-06T06:23:06.114Z,57.88
2022-09-06T06:23:40.745Z,58.17
2022-09-06T06:24:14.153Z,58.72
2022-09-06T06:24:47.343Z,59.28
2022-09-06T06:25:23.322Z,59.59
2022-09-06T06:25:56.488Z,59.88
2022-09-06T06:26:32.999Z,60.07
2022-09-06T06:27:06.449Z,60.34
2022-09-06T06:27:39.692Z,60.67
2022-09-06T06:28:13.007Z,60.57
2022-09-06T06:28:47.076Z,60.70
2022-09-06T06:29:20.449Z,61.01
2022-09-06T06:29:53.466Z,61.22
2022-09-06T06:30:26.709Z,61.15
2022-09-06T06:31:00.003Z,61.16
2022-09-06T06:31:33.834Z,61.02
2022-09-06T06:32:07.865Z,61.03
2022-09-06T06:32:41.487Z,61.09
2022-09-06T06:33:14.505Z,61.24
2022-09-06T06:33:47.616Z,61.43
2022-09-06T06:34:22.221Z,61.59
2022-09-06T06:34:55.362Z,61.66
2022-09-06T06:35:28.656Z,61.41
2022-09-06T06:36:05.888Z,61.29
2022-09-06T06:36:39.136Z,61.19
2022-09-06T06:37:12.273Z,61.13
2022-09-06T06:37:46.090Z,61.21
2022-09-06T06:38:19.095Z,61.11
2022-09-06T06:38:55.013Z,61.17
2022-09-06T06:39:28.234Z,61.03
2022-09-06T06:40:01.479Z,61.01
2022-09-06T06:40:34.733Z,61.10
2022-09-06T06:41:10.032Z,61.37
2022-09-06T06:41:43.203Z,61.30
2022-09-06T06:42:16.332Z,61.41
2022-09-06T06:42:49.617Z,61.28
2022-09-06T06:43:22.995Z,61.28
2022-09-06T06:44:02.141Z,61.36
2022-09-06T06:44:35.382Z,61.19
2022-09-06T06:45:08.982Z,61.05
2022-09-06T06:45:42.288Z,61.01
2022-09-06T06:46:18.052Z,60.98
2022-09-06T06:46:51.919Z,61.01
2022-09-06T06:47:25.775Z,60.91
2022-09-06T06:47:58.989Z,60.92
2022-09-06T06:48:32.323Z,61.09
2022-09-06T06:49:05.664Z,61.29
2022-09-06T06:49:38.898Z,61.40
2022-09-06T06:50:12.013Z,61.47
2022-09-06T06:50:45.664Z,61.74
2022-09-06T06:51:20.130Z,61.77
2022-09-06T06:51:53.302Z,61.59
2022-09-06T06:52:26.531Z,61.64
2022-09-06T06:52:59.587Z,61.75
2022-09-06T06:53:33.282Z,61.76
2022-09-06T06:54:06.861Z,61.30
2022-09-06T06:54:40.167Z,61.22
2022-09-06T06:55:13.242Z,61.27
2022-09-06T06:55:48.689Z,61.30
2022-09-06T06:56:33.727Z,61.28
2022-09-06T06:57:09.605Z,61.12
2022-09-06T06:57:43.355Z,60.80
2022-09-06T06:58:17.798Z,60.45
2022-09-06T06:58:54.872Z,60.26
2022-09-06T06:59:28.146Z,60.21
2022-09-06T07:00:02.123Z,60.05
2022-09-06T07:00:35.338Z,59.82
2022-09-06T07:01:10.227Z,59.69
2022-09-06T07:01:43.603Z,59.64
2022-09-06T07:02:18.172Z,59.69
2022-09-06T07:02:51.362Z,59.66
2022-09-06T07:03:24.535Z,59.58
2022-09-06T07:03:58.581Z,59.16
2022-09-06T07:04:31.811Z,58.98
2022-09-06T07:06:14.131Z,59.13
2022-09-06T07:07:46.629Z,59.14
2022-09-06T07:08:19.833Z,59.17
2022-09-06T07:08:52.974Z,59.09
2022-09-06T07:10:35.996Z,58.84
2022-09-06T07:11:11.737Z,58.85
2022-09-06T07:11:45.254Z,58.76
2022-09-06T07:12:18.389Z,58.75
2022-09-06T07:12:52.239Z,58.65
2022-09-06T07:13:25.504Z,58.71
2022-09-06T07:13:58.783Z,58.80
2022-09-06T07:14:32.050Z,58.64
2022-09-06T07:15:05.854Z,58.10
2022-09-06T07:15:38.991Z,57.78
2022-09-06T07:16:19.688Z,57.32
2022-09-06T07:16:58.509Z,57.04
2022-09-06T07:17:31.694Z,57.06
2022-09-06T07:18:04.975Z,56.41
2022-09-06T07:18:42.409Z,56.15
2022-09-06T07:20:12.889Z,56.44
2022-09-06T07:21:40.131Z,56.45
2022-09-06T07:22:13.822Z,56.05
2022-09-06T07:22:47.379Z,55.90
2022-09-06T07:24:14.847Z,56.16
2022-09-06T07:24:48.158Z,56.06
2022-09-06T07:25:21.732Z,55.66
2022-09-06T07:25:55.139Z,55.44
2022-09-06T07:26:30.252Z,55.31
2022-09-06T07:28:07.331Z,55.00
2022-09-06T07:28:40.549Z,55.21
2022-09-06T07:29:13.699Z,55.28
2022-09-06T07:29:46.923Z,55.21
2022-09-06T07:30:20.570Z,54.80
2022-09-06T07:30:57.982Z,54.59
2022-09-06T07:32:26.394Z,54.85
2022-09-06T07:33:00.685Z,55.20
2022-09-06T07:33:35.727Z,54.96
2022-09-06T07:34:08.806Z,54.31
2022-09-06T07:34:41.910Z,54.16
2022-09-06T07:35:15.234Z,54.30
2022-09-06T07:36:02.539Z,54.45
2022-09-06T07:36:35.926Z,54.54
2022-09-06T07:37:09.063Z,54.82
2022-09-06T07:37:42.274Z,54.74
2022-09-06T07:38:15.414Z,54.56
2022-09-06T07:38:50.101Z,54.66
2022-09-06T07:39:23.586Z,54.79
2022-09-06T07:39:57.050Z,54.91
2022-09-06T07:40:31.566Z,54.75
2022-09-06T07:41:07.259Z,54.73
2022-09-06T07:41:40.423Z,54.62
2022-09-06T07:42:13.713Z,54.41
2022-09-06T07:42:46.938Z,53.97
2022-09-06T07:43:20.259Z,53.73
2022-09-06T07:43:55.121Z,53.52
2022-09-06T07:44:29.568Z,53.53
2022-09-06T07:45:02.812Z,53.48
2022-09-06T07:45:36.191Z,53.57
2022-09-06T07:46:11.936Z,53.85
2022-09-06T07:46:45.214Z,53.86
2022-09-06T07:48:11.407Z,53.70
2022-09-06T07:48:47.265Z,53.10
2022-09-06T07:49:20.638Z,53.01
2022-09-06T07:50:49.457Z,52.88